createdAt,value
2019-01-11T00:00:17.544Z,50.27
2019-01-11T00:00:50.006Z,50.40
2019-01-11T00:01:21.602Z,50.38
2019-01-11T00:01:53.184Z,50.08
2019-01-11T00:02:24.777Z,50.34
2019-01-11T00:02:56.392Z,50.20
2019-01-11T00:03:27.998Z,50.13
2019-01-11T00:03:59.594Z,50.15
2019-01-11T00:04:31.190Z,50.43
2019-01-11T00:05:02.829Z,50.13
2019-01-11T00:05:34.421Z,50.07
2019-01-11T00:06:06.017Z,49.99
2019-01-11T00:06:37.622Z,50.06
2019-01-11T00:07:09.228Z,50.20
2019-01-11T00:07:40.836Z,50.01
2019-01-11T00:08:12.454Z,50.12
2019-01-11T00:08:44.063Z,50.04
2019-01-11T00:09:15.661Z,50.01
2019-01-11T00:09:47.263Z,50.14
2019-01-11T00:10:18.863Z,50.31
2019-01-11T00:10:50.449Z,50.01
2019-01-11T00:11:22.041Z,50.04
2019-01-11T00:11:53.643Z,50.23
2019-01-11T00:12:25.234Z,50.03
2019-01-11T00:12:56.854Z,50.08
2019-01-11T00:13:28.446Z,50.22
2019-01-11T00:14:00.040Z,49.74
2019-01-11T00:14:31.652Z,49.92
2019-01-11T00:15:03.260Z,43.64
2019-01-11T00:15:34.863Z,37.18
2019-01-11T00:16:06.457Z,34.80
2019-01-11T00:16:38.064Z,35.57
2019-01-11T00:17:09.662Z,34.61
2019-01-11T00:17:41.254Z,34.72
2019-01-11T00:18:12.888Z,35.04
2019-01-11T00:18:44.504Z,37.98
2019-01-11T00:19:16.108Z,42.26
2019-01-11T00:19:47.716Z,44.10
2019-01-11T00:20:19.319Z,43.55
2019-01-11T00:20:50.903Z,43.18
2019-01-11T00:21:22.503Z,43.29
2019-01-11T00:21:54.095Z,42.49
2019-01-11T00:22:25.690Z,42.57
2019-01-11T00:22:57.321Z,42.66
2019-01-11T00:23:28.925Z,42.67
2019-01-11T00:24:00.556Z,42.47
2019-01-11T00:24:32.150Z,42.73
2019-01-11T00:25:03.741Z,42.63
2019-01-11T00:25:35.344Z,42.59
2019-01-11T00:26:07.083Z,42.72
2019-01-11T00:26:38.687Z,43.14
2019-01-11T00:27:10.340Z,43.43
2019-01-11T00:27:41.937Z,43.53
2019-01-11T00:28:13.565Z,43.91
2019-01-11T00:28:45.167Z,44.19
2019-01-11T00:29:16.777Z,44.18
2019-01-11T00:29:48.397Z,44.42
2019-01-11T00:30:19.999Z,44.64
2019-01-11T00:30:51.595Z,44.79
2019-01-11T00:31:23.186Z,44.97
2019-01-11T00:31:54.778Z,45.10
2019-01-11T00:32:26.355Z,45.25
2019-01-11T00:32:57.946Z,45.42
2019-01-11T00:33:29.565Z,45.49
2019-01-11T00:34:01.172Z,45.77
2019-01-11T00:34:32.782Z,45.91
2019-01-11T00:35:04.388Z,45.97
2019-01-11T00:35:35.971Z,46.16
2019-01-11T00:36:07.563Z,46.34
2019-01-11T00:36:39.181Z,46.42
2019-01-11T00:37:10.778Z,46.56
2019-01-11T00:37:42.352Z,46.58
2019-01-11T00:38:13.969Z,46.73
2019-01-11T00:38:45.559Z,46.80
2019-01-11T00:39:17.155Z,46.92
2019-01-11T00:39:48.749Z,47.03
2019-01-11T00:40:20.362Z,47.03
2019-01-11T00:40:51.967Z,47.07
2019-01-11T00:41:23.572Z,47.22
2019-01-11T00:41:55.169Z,47.31
2019-01-11T00:42:26.776Z,47.39
2019-01-11T00:42:58.360Z,47.52
2019-01-11T00:43:29.940Z,47.48
2019-01-11T00:44:01.547Z,47.69
2019-01-11T00:44:33.142Z,47.71
2019-01-11T00:45:04.734Z,47.78
2019-01-11T00:45:36.316Z,47.84
2019-01-11T00:46:07.927Z,47.89
2019-01-11T00:46:39.516Z,47.98
2019-01-11T00:47:11.113Z,48.10
2019-01-11T00:47:42.701Z,48.18
2019-01-11T00:48:14.319Z,48.18
2019-01-11T00:48:45.910Z,48.36
2019-01-11T00:49:17.506Z,48.42
2019-01-11T00:49:49.131Z,48.59
2019-01-11T00:50:20.711Z,48.60
2019-01-11T00:50:52.313Z,48.60
2019-01-11T00:51:23.910Z,48.63
2019-01-11T00:51:55.502Z,48.77
2019-01-11T00:52:27.108Z,48.84
2019-01-11T00:52:58.712Z,48.92
2019-01-11T00:53:30.306Z,48.90
2019-01-11T00:54:01.888Z,48.90
2019-01-11T00:54:33.481Z,49.14
2019-01-11T00:55:06.024Z,49.17
2019-01-11T00:55:36.721Z,49.21
2019-01-11T00:56:08.313Z,49.34
2019-01-11T00:56:39.904Z,49.39
2019-01-11T00:57:11.498Z,49.43
2019-01-11T00:57:43.112Z,49.46
2019-01-11T00:58:14.720Z,49.53
2019-01-11T00:58:46.341Z,49.55
2019-01-11T00:59:17.948Z,49.56
2019-01-11T00:59:49.541Z,49.69
2019-01-11T01:00:21.139Z,49.62
2019-01-11T01:00:52.736Z,49.68
2019-01-11T01:01:24.407Z,49.81
2019-01-11T01:01:55.987Z,49.91
2019-01-11T01:02:27.586Z,49.77
2019-01-11T01:02:59.178Z,49.94
2019-01-11T01:03:30.798Z,49.96
2019-01-11T01:04:02.404Z,49.95
2019-01-11T01:04:34.012Z,50.04
2019-01-11T01:05:05.628Z,50.00
2019-01-11T01:05:37.239Z,49.98
2019-01-11T01:06:08.833Z,50.06
2019-01-11T01:06:40.432Z,50.02
2019-01-11T01:07:12.025Z,50.07
2019-01-11T01:07:43.613Z,50.14
2019-01-11T01:08:15.206Z,50.35
2019-01-11T01:08:46.826Z,50.27
2019-01-11T01:09:18.418Z,50.33
2019-01-11T01:09:50.028Z,50.40
2019-01-11T01:10:21.623Z,50.37
2019-01-11T01:10:53.219Z,50.42
2019-01-11T01:11:24.813Z,50.59
2019-01-11T01:11:56.409Z,50.43
2019-01-11T01:12:28.011Z,50.53
2019-01-11T01:12:59.606Z,50.55
2019-01-11T01:13:31.203Z,50.61
2019-01-11T01:14:02.822Z,50.70
2019-01-11T01:14:34.432Z,50.76
2019-01-11T01:15:06.030Z,50.68
2019-01-11T01:15:37.616Z,50.87
2019-01-11T01:16:09.217Z,50.83
2019-01-11T01:16:40.819Z,50.85
2019-01-11T01:17:12.428Z,50.88
2019-01-11T01:17:44.044Z,50.88
2019-01-11T01:18:15.634Z,50.87
2019-01-11T01:18:47.249Z,50.86
2019-01-11T01:19:20.069Z,50.87
2019-01-11T01:19:50.502Z,50.92
2019-01-11T01:20:22.083Z,50.95
2019-01-11T01:20:53.673Z,51.11
2019-01-11T01:21:25.265Z,51.01
2019-01-11T01:21:56.867Z,51.09
2019-01-11T01:22:28.473Z,51.15
2019-01-11T01:23:00.076Z,51.15
2019-01-11T01:23:31.670Z,51.18
2019-01-11T01:24:03.296Z,51.11
2019-01-11T01:24:34.905Z,51.14
2019-01-11T01:25:06.502Z,51.17
2019-01-11T01:25:38.084Z,51.39
2019-01-11T01:26:09.695Z,51.24
2019-01-11T01:26:41.290Z,51.31
2019-01-11T01:27:12.883Z,51.30
2019-01-11T01:27:44.488Z,51.51
2019-01-11T01:28:16.096Z,51.46
2019-01-11T01:28:47.724Z,51.36
2019-01-11T01:29:19.356Z,51.38
2019-01-11T01:29:50.940Z,51.65
2019-01-11T01:30:22.548Z,51.62
2019-01-11T01:30:54.145Z,51.71
2019-01-11T01:31:25.728Z,51.54
2019-01-11T01:31:57.308Z,51.67
2019-01-11T01:32:28.915Z,51.67
2019-01-11T01:33:00.509Z,51.76
2019-01-11T01:33:32.117Z,51.79
2019-01-11T01:34:03.739Z,51.78
2019-01-11T01:34:35.348Z,51.80
2019-01-11T01:35:06.945Z,51.80
2019-01-11T01:35:38.538Z,52.06
2019-01-11T01:36:10.134Z,52.15
2019-01-11T01:36:41.752Z,52.15
2019-01-11T01:37:13.359Z,52.32
2019-01-11T01:37:44.953Z,52.41
2019-01-11T01:38:16.556Z,52.48
2019-01-11T01:38:48.152Z,52.39
2019-01-11T01:39:19.771Z,52.74
2019-01-11T01:39:51.366Z,52.79
2019-01-11T01:40:22.996Z,52.52
2019-01-11T01:40:54.603Z,52.56
2019-01-11T01:41:26.188Z,52.58
2019-01-11T01:41:57.782Z,52.61
2019-01-11T01:42:29.392Z,52.57
2019-01-11T01:43:01.064Z,52.59
2019-01-11T01:43:32.653Z,52.99
2019-01-11T01:44:04.288Z,52.55
2019-01-11T01:44:35.880Z,52.62
2019-01-11T01:45:07.474Z,52.62
2019-01-11T01:45:39.065Z,52.71
2019-01-11T01:46:10.662Z,52.72
2019-01-11T01:46:42.258Z,52.84
2019-01-11T01:47:13.864Z,52.90
2019-01-11T01:47:45.476Z,52.66
2019-01-11T01:48:17.079Z,52.64
2019-01-11T01:48:48.693Z,52.66
2019-01-11T01:49:26.385Z,52.58
2019-01-11T01:49:51.947Z,52.58
2019-01-11T01:50:23.553Z,52.58
2019-01-11T01:50:55.145Z,52.57
2019-01-11T01:51:26.738Z,52.79
2019-01-11T01:51:58.320Z,52.60
2019-01-11T01:52:29.913Z,52.51
2019-01-11T01:53:01.520Z,52.61
2019-01-11T01:53:33.131Z,52.61
2019-01-11T01:54:04.749Z,52.57
2019-01-11T01:54:36.365Z,52.50
2019-01-11T01:55:07.972Z,52.54
2019-01-11T01:55:39.567Z,52.46
2019-01-11T01:56:11.167Z,52.47
2019-01-11T01:56:42.768Z,52.65
2019-01-11T01:57:14.366Z,52.46
2019-01-11T01:57:45.956Z,52.60
2019-01-11T01:58:17.549Z,52.70
2019-01-11T01:58:49.160Z,52.78
2019-01-11T01:59:20.791Z,52.63
2019-01-11T01:59:52.412Z,52.51
2019-01-11T02:00:24.015Z,52.61
2019-01-11T02:00:55.620Z,52.65
2019-01-11T02:01:27.227Z,52.66
2019-01-11T02:01:58.843Z,52.64
2019-01-11T02:02:30.440Z,52.75
2019-01-11T02:03:02.033Z,52.58
2019-01-11T02:03:33.635Z,52.58
2019-01-11T02:04:05.229Z,52.68
2019-01-11T02:04:36.850Z,52.70
2019-01-11T02:05:08.455Z,53.22
2019-01-11T02:05:40.050Z,52.89
2019-01-11T02:06:11.636Z,52.93
2019-01-11T02:06:43.234Z,53.16
2019-01-11T02:07:14.848Z,53.12
2019-01-11T02:07:46.439Z,52.98
2019-01-11T02:08:18.033Z,53.05
2019-01-11T02:08:49.630Z,52.42
2019-01-11T02:09:21.261Z,52.05
2019-01-11T02:09:52.860Z,51.96
2019-01-11T02:10:24.464Z,52.07
2019-01-11T02:10:56.076Z,52.14
2019-01-11T02:11:27.673Z,51.82
2019-01-11T02:11:59.273Z,51.72
2019-01-11T02:12:30.856Z,52.21
2019-01-11T02:13:02.456Z,51.91
2019-01-11T02:13:34.039Z,51.92
2019-01-11T02:14:05.631Z,51.97
2019-01-11T02:14:37.259Z,51.92
2019-01-11T02:15:08.867Z,52.23
2019-01-11T02:15:40.457Z,52.22
2019-01-11T02:16:12.050Z,52.02
2019-01-11T02:16:43.659Z,52.19
2019-01-11T02:17:15.254Z,52.22
2019-01-11T02:17:46.846Z,52.49
2019-01-11T02:18:18.446Z,52.57
2019-01-11T02:18:50.042Z,52.57
2019-01-11T02:19:21.656Z,52.56
2019-01-11T02:19:53.291Z,52.71
2019-01-11T02:20:24.898Z,52.87
2019-01-11T02:20:56.489Z,52.96
2019-01-11T02:21:28.082Z,52.89
2019-01-11T02:21:59.665Z,52.90
2019-01-11T02:22:31.259Z,52.94
2019-01-11T02:23:02.846Z,52.96
2019-01-11T02:23:34.437Z,53.30
2019-01-11T02:24:06.019Z,53.19
2019-01-11T02:24:37.648Z,53.15
2019-01-11T02:25:09.241Z,53.42
2019-01-11T02:25:46.163Z,53.64
2019-01-11T02:26:12.512Z,53.56
2019-01-11T02:26:44.106Z,53.89
2019-01-11T02:27:15.701Z,53.92
2019-01-11T02:27:47.307Z,53.97
2019-01-11T02:28:18.950Z,53.77
2019-01-11T02:28:50.556Z,53.66
2019-01-11T02:29:22.163Z,53.81
2019-01-11T02:29:53.783Z,53.97
2019-01-11T02:30:25.368Z,54.01
2019-01-11T02:30:56.962Z,53.99
2019-01-11T02:31:28.553Z,54.31
2019-01-11T02:32:00.156Z,54.38
2019-01-11T02:32:31.739Z,54.15
2019-01-11T02:33:03.335Z,54.66
2019-01-11T02:33:34.949Z,54.55
2019-01-11T02:34:06.546Z,54.40
2019-01-11T02:34:38.165Z,54.62
2019-01-11T02:35:09.768Z,54.66
2019-01-11T02:35:41.362Z,54.59
2019-01-11T02:36:12.954Z,54.44
2019-01-11T02:36:44.556Z,54.55
2019-01-11T02:37:16.150Z,54.81
2019-01-11T02:37:47.741Z,54.62
2019-01-11T02:38:19.348Z,54.50
2019-01-11T02:38:50.951Z,54.77
2019-01-11T02:39:22.536Z,54.72
2019-01-11T02:39:54.145Z,54.64
2019-01-11T02:40:25.751Z,54.64
2019-01-11T02:40:57.347Z,54.91
2019-01-11T02:41:28.952Z,54.54
2019-01-11T02:42:00.571Z,54.42
2019-01-11T02:42:32.187Z,54.67
2019-01-11T02:43:03.777Z,54.49
2019-01-11T02:43:35.384Z,54.61
2019-01-11T02:44:06.982Z,54.48
2019-01-11T02:44:38.579Z,54.38
2019-01-11T02:45:10.212Z,54.43
2019-01-11T02:45:41.818Z,54.51
2019-01-11T02:46:13.410Z,54.47
2019-01-11T02:46:45.011Z,54.90
2019-01-11T02:47:16.627Z,54.78
2019-01-11T02:47:48.232Z,54.75
2019-01-11T02:48:19.816Z,54.98
2019-01-11T02:48:51.497Z,54.99
2019-01-11T02:49:23.104Z,54.88
2019-01-11T02:49:55.114Z,54.87
2019-01-11T02:50:26.407Z,55.18
2019-01-11T02:50:58.007Z,55.05
2019-01-11T02:51:29.607Z,55.01
2019-01-11T02:52:01.188Z,55.19
2019-01-11T02:52:32.793Z,55.23
2019-01-11T02:53:04.390Z,55.12
2019-01-11T02:53:35.998Z,54.96
2019-01-11T02:54:07.594Z,55.12
2019-01-11T02:54:39.204Z,55.16
2019-01-11T02:55:10.837Z,55.24
2019-01-11T02:55:42.416Z,55.20
2019-01-11T02:56:14.007Z,55.39
2019-01-11T02:56:45.603Z,55.64
2019-01-11T02:57:17.212Z,55.42
2019-01-11T02:57:48.822Z,55.42
2019-01-11T02:58:20.413Z,55.38
2019-01-11T02:58:52.017Z,56.09
2019-01-11T02:59:23.600Z,55.55
2019-01-11T02:59:55.208Z,55.83
2019-01-11T03:00:26.817Z,55.71
2019-01-11T03:00:58.402Z,55.78
2019-01-11T03:01:29.999Z,56.20
2019-01-11T03:02:01.602Z,55.78
2019-01-11T03:02:33.201Z,55.58
2019-01-11T03:03:04.797Z,56.23
2019-01-11T03:03:36.379Z,55.61
2019-01-11T03:04:07.974Z,55.92
2019-01-11T03:04:39.569Z,55.91
2019-01-11T03:05:11.191Z,55.95
2019-01-11T03:05:42.789Z,55.96
2019-01-11T03:06:14.389Z,55.74
2019-01-11T03:06:45.982Z,56.43
2019-01-11T03:07:17.588Z,55.79
2019-01-11T03:07:49.196Z,55.80
2019-01-11T03:08:20.789Z,56.17
2019-01-11T03:08:52.391Z,56.07
2019-01-11T03:09:23.985Z,55.60
2019-01-11T03:09:55.587Z,55.98
2019-01-11T03:10:27.246Z,55.47
2019-01-11T03:10:58.829Z,55.45
2019-01-11T03:11:30.424Z,55.70
2019-01-11T03:12:02.019Z,55.85
2019-01-11T03:12:33.599Z,55.90
2019-01-11T03:13:05.214Z,55.42
2019-01-11T03:13:36.802Z,55.64
2019-01-11T03:14:08.398Z,55.93
2019-01-11T03:14:40.008Z,55.90
2019-01-11T03:15:11.645Z,55.34
2019-01-11T03:15:43.232Z,55.32
2019-01-11T03:16:14.826Z,55.67
2019-01-11T03:16:46.437Z,55.43
2019-01-11T03:17:18.048Z,55.57
2019-01-11T03:17:49.653Z,55.59
2019-01-11T03:18:21.268Z,55.77
2019-01-11T03:18:52.867Z,55.79
2019-01-11T03:19:24.470Z,56.06
2019-01-11T03:19:56.068Z,55.44
2019-01-11T03:20:27.702Z,55.46
2019-01-11T03:20:59.308Z,55.67
2019-01-11T03:21:30.916Z,55.41
2019-01-11T03:22:02.633Z,55.11
2019-01-11T03:22:34.217Z,55.18
2019-01-11T03:23:05.822Z,55.37
2019-01-11T03:23:37.443Z,55.32
2019-01-11T03:24:09.038Z,55.20
2019-01-11T03:24:40.622Z,55.14
2019-01-11T03:25:12.211Z,55.29
2019-01-11T03:25:43.802Z,55.06
2019-01-11T03:26:15.384Z,55.00
2019-01-11T03:26:46.992Z,55.10
2019-01-11T03:27:18.604Z,55.33
2019-01-11T03:27:50.216Z,55.33
2019-01-11T03:28:21.801Z,55.03
2019-01-11T03:28:53.394Z,54.88
2019-01-11T03:29:24.979Z,54.95
2019-01-11T03:29:56.580Z,54.81
2019-01-11T03:30:28.188Z,54.77
2019-01-11T03:30:59.786Z,54.92
2019-01-11T03:31:31.393Z,54.99
2019-01-11T03:32:03.000Z,55.08
2019-01-11T03:32:34.600Z,54.99
2019-01-11T03:33:06.195Z,55.02
2019-01-11T03:33:37.804Z,55.19
2019-01-11T03:34:09.398Z,55.04
2019-01-11T03:34:40.989Z,55.03
2019-01-11T03:35:15.529Z,55.06
2019-01-11T03:35:47.135Z,55.35
2019-01-11T03:36:18.744Z,55.28
2019-01-11T03:36:50.335Z,55.02
2019-01-11T03:37:21.925Z,55.12
2019-01-11T03:37:53.508Z,55.07
2019-01-11T03:38:25.118Z,55.01
2019-01-11T03:38:56.700Z,54.93
2019-01-11T03:39:28.284Z,55.43
2019-01-11T03:39:59.878Z,55.52
2019-01-11T03:40:31.502Z,55.24
2019-01-11T03:41:03.142Z,55.25
2019-01-11T03:41:34.733Z,55.38
2019-01-11T03:42:06.341Z,55.25
2019-01-11T03:42:37.953Z,55.68
2019-01-11T03:43:09.560Z,55.41
2019-01-11T03:43:41.168Z,55.46
2019-01-11T03:44:12.765Z,55.46
2019-01-11T03:44:44.371Z,55.50
2019-01-11T03:45:15.966Z,55.61
2019-01-11T03:45:47.604Z,55.52
2019-01-11T03:46:19.199Z,55.54
2019-01-11T03:46:50.799Z,55.51
2019-01-11T03:47:22.399Z,55.43
2019-01-11T03:47:53.985Z,56.02
2019-01-11T03:48:25.582Z,55.69
2019-01-11T03:48:57.190Z,55.82
2019-01-11T03:49:28.789Z,55.93
2019-01-11T03:50:00.372Z,55.84
2019-01-11T03:50:31.980Z,55.93
2019-01-11T03:51:03.594Z,56.09
2019-01-11T03:51:35.195Z,56.09
2019-01-11T03:52:06.832Z,56.18
2019-01-11T03:52:38.426Z,56.08
2019-01-11T03:53:10.019Z,56.30
2019-01-11T03:53:41.619Z,56.74
2019-01-11T03:54:13.216Z,56.05
2019-01-11T03:54:44.815Z,56.21
2019-01-11T03:55:16.395Z,56.28
2019-01-11T03:55:48.005Z,56.23
2019-01-11T03:56:19.616Z,56.41
2019-01-11T03:56:51.269Z,56.22
2019-01-11T03:57:22.872Z,56.41
2019-01-11T03:57:54.465Z,56.41
2019-01-11T03:58:26.075Z,56.38
2019-01-11T03:58:57.689Z,56.36
2019-01-11T03:59:29.279Z,56.55
2019-01-11T04:00:00.884Z,56.50
2019-01-11T04:00:33.363Z,56.30
2019-01-11T04:01:04.975Z,56.50
2019-01-11T04:01:36.556Z,56.68
2019-01-11T04:02:08.844Z,56.81
2019-01-11T04:02:40.437Z,56.86
2019-01-11T04:03:12.029Z,56.77
2019-01-11T04:03:43.636Z,56.86
2019-01-11T04:04:15.233Z,56.87
2019-01-11T04:04:46.840Z,56.82
2019-01-11T04:05:18.438Z,56.73
2019-01-11T04:05:50.078Z,56.67
2019-01-11T04:06:21.679Z,56.65
2019-01-11T04:06:53.260Z,56.72
2019-01-11T04:07:24.853Z,56.94
2019-01-11T04:07:56.456Z,56.85
2019-01-11T04:08:28.061Z,56.82
2019-01-11T04:08:59.668Z,56.52
2019-01-11T04:09:31.261Z,56.77
2019-01-11T04:10:02.853Z,56.59
2019-01-11T04:10:34.464Z,56.70
2019-01-11T04:11:06.093Z,56.74
2019-01-11T04:11:37.681Z,56.52
2019-01-11T04:12:09.293Z,56.46
2019-01-11T04:12:40.899Z,56.43
2019-01-11T04:13:12.497Z,56.32
2019-01-11T04:13:44.080Z,56.46
2019-01-11T04:14:15.679Z,56.15
2019-01-11T04:14:47.285Z,55.90
2019-01-11T04:15:18.886Z,56.11
2019-01-11T04:15:50.491Z,56.18
2019-01-11T04:16:22.162Z,56.35
2019-01-11T04:16:53.763Z,56.12
2019-01-11T04:17:25.358Z,55.93
2019-01-11T04:18:01.506Z,56.05
2019-01-11T04:18:33.097Z,55.92
2019-01-11T04:19:04.685Z,55.91
2019-01-11T04:19:36.293Z,55.70
2019-01-11T04:20:07.886Z,55.57
2019-01-11T04:20:39.477Z,55.60
2019-01-11T04:21:11.103Z,55.38
2019-01-11T04:21:42.693Z,55.57
2019-01-11T04:22:14.303Z,55.64
2019-01-11T04:22:46.489Z,55.50
2019-01-11T04:23:18.081Z,55.47
2019-01-11T04:23:49.664Z,55.54
2019-01-11T04:24:21.264Z,56.95
2019-01-11T04:25:07.633Z,56.20
2019-01-11T04:25:39.285Z,55.32
2019-01-11T04:26:10.896Z,54.49
2019-01-11T04:26:42.494Z,53.93
2019-01-11T04:27:14.090Z,53.58
2019-01-11T04:27:45.681Z,53.27
2019-01-11T04:28:17.275Z,53.42
2019-01-11T04:28:48.882Z,53.57
2019-01-11T04:29:20.488Z,53.62
2019-01-11T04:29:52.089Z,53.57
2019-01-11T04:30:23.692Z,53.58
2019-01-11T04:30:55.301Z,53.53
2019-01-11T04:31:26.923Z,53.53
2019-01-11T04:31:58.514Z,53.59
2019-01-11T04:32:30.111Z,53.68
2019-01-11T04:33:01.713Z,53.72
2019-01-11T04:33:33.310Z,53.72
2019-01-11T04:34:04.907Z,53.71
2019-01-11T04:34:36.517Z,53.67
2019-01-11T04:35:08.111Z,53.67
2019-01-11T04:35:39.720Z,53.83
2019-01-11T04:36:11.343Z,53.70
2019-01-11T04:36:42.976Z,53.79
2019-01-11T04:37:14.574Z,53.96
2019-01-11T04:37:46.165Z,54.09
2019-01-11T04:38:17.763Z,54.09
2019-01-11T04:38:49.366Z,53.91
2019-01-11T04:39:20.997Z,54.14
2019-01-11T04:39:52.582Z,53.99
2019-01-11T04:40:24.189Z,53.98
2019-01-11T04:40:55.800Z,54.03
2019-01-11T04:41:27.407Z,54.09
2019-01-11T04:41:58.998Z,54.03
2019-01-11T04:42:30.605Z,54.02
2019-01-11T04:43:02.211Z,54.17
2019-01-11T04:43:33.801Z,54.15
2019-01-11T04:44:05.399Z,54.02
2019-01-11T04:44:36.998Z,54.12
2019-01-11T04:45:08.602Z,54.11
2019-01-11T04:45:40.209Z,53.99
2019-01-11T04:46:11.806Z,54.03
2019-01-11T04:46:43.448Z,54.00
2019-01-11T04:47:15.585Z,54.18
2019-01-11T04:47:46.729Z,54.22
2019-01-11T04:48:18.331Z,54.04
2019-01-11T04:48:49.916Z,54.20
2019-01-11T04:49:21.509Z,54.09
2019-01-11T04:49:53.113Z,54.14
2019-01-11T04:50:24.718Z,54.09
2019-01-11T04:50:56.300Z,54.22
2019-01-11T04:51:27.914Z,54.15
2019-01-11T04:51:59.505Z,54.18
2019-01-11T04:52:31.098Z,54.40
2019-01-11T04:53:02.683Z,54.19
2019-01-11T04:53:34.276Z,54.21
2019-01-11T04:54:05.865Z,54.33
2019-01-11T04:54:37.466Z,54.36
2019-01-11T04:55:09.081Z,54.44
2019-01-11T04:55:40.682Z,54.67
2019-01-11T04:56:12.278Z,54.68
2019-01-11T04:56:43.889Z,54.51
2019-01-11T04:57:15.481Z,54.79
2019-01-11T04:57:47.089Z,54.70
2019-01-11T04:58:18.688Z,54.61
2019-01-11T04:58:50.282Z,54.73
2019-01-11T04:59:21.882Z,54.85
2019-01-11T04:59:53.483Z,55.10
2019-01-11T05:00:25.078Z,55.02
2019-01-11T05:00:56.679Z,55.20
2019-01-11T05:01:28.275Z,55.05
2019-01-11T05:01:59.895Z,55.16
2019-01-11T05:02:31.499Z,55.18
2019-01-11T05:03:03.105Z,55.39
2019-01-11T05:03:34.732Z,55.31
2019-01-11T05:04:06.330Z,55.29
2019-01-11T05:04:37.945Z,55.24
2019-01-11T05:05:09.550Z,55.47
2019-01-11T05:05:41.144Z,55.31
2019-01-11T05:06:12.723Z,55.45
2019-01-11T05:06:44.340Z,55.37
2019-01-11T05:07:15.941Z,55.51
2019-01-11T05:07:47.544Z,55.46
2019-01-11T05:08:19.134Z,55.59
2019-01-11T05:08:50.728Z,55.62
2019-01-11T05:09:22.319Z,55.63
2019-01-11T05:09:53.927Z,55.88
2019-01-11T05:10:25.539Z,55.90
2019-01-11T05:10:57.134Z,56.04
2019-01-11T05:11:28.721Z,56.30
2019-01-11T05:12:00.328Z,56.36
2019-01-11T05:12:31.922Z,56.50
2019-01-11T05:13:03.519Z,56.65
2019-01-11T05:13:36.067Z,56.56
2019-01-11T05:14:07.669Z,56.60
2019-01-11T05:14:39.269Z,56.67
2019-01-11T05:15:10.871Z,56.57
2019-01-11T05:15:42.485Z,56.72
2019-01-11T05:16:14.097Z,56.61
2019-01-11T05:16:45.717Z,56.73
2019-01-11T05:17:17.323Z,56.73
2019-01-11T05:17:48.927Z,56.77
2019-01-11T05:18:20.528Z,56.77
2019-01-11T05:18:52.139Z,56.83
2019-01-11T05:19:23.739Z,56.85
2019-01-11T05:19:55.353Z,57.13
2019-01-11T05:20:26.952Z,57.08
2019-01-11T05:20:58.535Z,57.02
2019-01-11T05:21:30.133Z,57.09
2019-01-11T05:22:01.764Z,57.12
2019-01-11T05:22:33.348Z,57.18
2019-01-11T05:23:04.952Z,57.10
2019-01-11T05:23:36.545Z,57.10
2019-01-11T05:24:08.147Z,57.27
2019-01-11T05:24:39.748Z,57.24
2019-01-11T05:25:11.364Z,57.28
2019-01-11T05:25:42.977Z,57.22
2019-01-11T05:26:14.583Z,57.07
2019-01-11T05:26:46.181Z,57.17
2019-01-11T05:27:17.812Z,57.09
2019-01-11T05:27:49.421Z,57.04
2019-01-11T05:28:21.075Z,56.91
2019-01-11T05:28:52.666Z,56.93
2019-01-11T05:29:24.248Z,56.92
2019-01-11T05:29:55.839Z,56.90
2019-01-11T05:30:27.447Z,56.85
2019-01-11T05:30:59.325Z,57.20
2019-01-11T05:31:30.923Z,57.10
2019-01-11T05:32:02.558Z,56.91
2019-01-11T05:32:34.148Z,56.87
2019-01-11T05:33:05.738Z,56.95
2019-01-11T05:33:37.330Z,56.68
2019-01-11T05:34:08.924Z,56.83
2019-01-11T05:34:40.518Z,56.61
2019-01-11T05:35:12.123Z,56.51
2019-01-11T05:35:43.730Z,56.46
2019-01-11T05:36:15.330Z,56.33
2019-01-11T05:36:46.927Z,56.37
2019-01-11T05:37:18.548Z,56.18
2019-01-11T05:37:50.154Z,56.09
2019-01-11T05:38:21.746Z,56.19
2019-01-11T05:38:53.337Z,56.04
2019-01-11T05:39:24.942Z,56.02
2019-01-11T05:39:56.543Z,55.87
2019-01-11T05:40:28.185Z,55.90
2019-01-11T05:40:59.789Z,55.83
2019-01-11T05:41:31.375Z,55.73
2019-01-11T05:42:03.006Z,55.94
2019-01-11T05:42:34.599Z,55.72
2019-01-11T05:43:06.182Z,56.03
2019-01-11T05:43:37.773Z,55.60
2019-01-11T05:44:09.379Z,55.60
2019-01-11T05:44:40.988Z,55.73
2019-01-11T05:45:12.590Z,55.63
2019-01-11T05:45:44.182Z,55.64
2019-01-11T05:46:15.797Z,55.56
2019-01-11T05:46:47.391Z,55.60
2019-01-11T05:47:19.028Z,55.54
2019-01-11T05:47:50.630Z,55.23
2019-01-11T05:48:22.230Z,55.39
2019-01-11T05:48:53.834Z,55.30
2019-01-11T05:49:25.462Z,55.22
2019-01-11T05:49:57.068Z,55.12
2019-01-11T05:50:28.655Z,55.22
2019-01-11T05:51:00.265Z,55.17
2019-01-11T05:51:31.879Z,55.34
2019-01-11T05:52:03.481Z,55.05
2019-01-11T05:52:35.098Z,55.12
2019-01-11T05:53:06.705Z,54.95
2019-01-11T05:53:38.349Z,54.98
2019-01-11T05:54:09.942Z,55.01
2019-01-11T05:54:42.529Z,54.83
2019-01-11T05:55:13.210Z,54.91
2019-01-11T05:55:44.812Z,54.68
2019-01-11T05:56:16.406Z,54.56
2019-01-11T05:56:48.013Z,54.43
2019-01-11T05:57:19.646Z,54.47
2019-01-11T05:58:09.040Z,54.52
2019-01-11T05:58:40.643Z,54.45
2019-01-11T05:59:12.242Z,54.34
2019-01-11T05:59:43.836Z,54.25
2019-01-11T06:00:15.444Z,54.33
2019-01-11T06:00:47.110Z,54.26
2019-01-11T06:01:18.716Z,54.20
2019-01-11T06:01:50.315Z,54.68
2019-01-11T06:02:21.934Z,54.30
2019-01-11T06:02:53.526Z,54.11
2019-01-11T06:03:25.131Z,54.13
2019-01-11T06:03:56.903Z,54.17
2019-01-11T06:04:33.884Z,54.15
2019-01-11T06:05:05.477Z,54.06
2019-01-11T06:05:37.064Z,54.08
2019-01-11T06:06:08.668Z,54.16
2019-01-11T06:06:55.147Z,54.05
2019-01-11T06:07:26.774Z,54.06
2019-01-11T06:07:58.394Z,54.06
2019-01-11T06:08:30.000Z,54.01
2019-01-11T06:09:01.599Z,54.01
2019-01-11T06:09:33.194Z,53.94
2019-01-11T06:10:04.789Z,53.96
2019-01-11T06:10:36.401Z,53.93
2019-01-11T06:11:07.994Z,54.03
2019-01-11T06:11:39.597Z,53.91
2019-01-11T06:12:11.177Z,54.06
2019-01-11T06:12:42.788Z,54.13
2019-01-11T06:13:14.395Z,53.94
2019-01-11T06:13:46.000Z,53.88
2019-01-11T06:14:17.606Z,54.00
2019-01-11T06:14:49.216Z,53.92
2019-01-11T06:15:20.813Z,53.96
2019-01-11T06:15:52.398Z,54.07
2019-01-11T06:16:23.990Z,54.12
2019-01-11T06:16:55.585Z,54.00
2019-01-11T06:17:27.177Z,53.98
2019-01-11T06:17:58.803Z,54.01
2019-01-11T06:18:30.388Z,54.00
2019-01-11T06:19:01.991Z,54.08
2019-01-11T06:19:33.599Z,53.97
2019-01-11T06:20:05.203Z,54.08
2019-01-11T06:20:36.811Z,54.63
2019-01-11T06:21:08.404Z,54.26
2019-01-11T06:21:40.007Z,54.27
2019-01-11T06:22:11.592Z,54.14
2019-01-11T06:22:43.240Z,54.45
2019-01-11T06:23:14.847Z,54.33
2019-01-11T06:23:46.452Z,54.46
2019-01-11T06:24:18.059Z,54.47
2019-01-11T06:24:49.653Z,54.47
2019-01-11T06:25:21.261Z,54.61
2019-01-11T06:25:52.861Z,54.45
2019-01-11T06:26:24.472Z,54.59
2019-01-11T06:26:56.083Z,54.59
2019-01-11T06:27:27.681Z,54.90
2019-01-11T06:27:59.303Z,54.99
2019-01-11T06:28:30.897Z,54.85
2019-01-11T06:29:02.511Z,55.19
2019-01-11T06:29:34.115Z,54.83
2019-01-11T06:30:05.711Z,54.90
2019-01-11T06:30:37.311Z,54.97
2019-01-11T06:31:08.914Z,54.93
2019-01-11T06:31:40.509Z,55.25
2019-01-11T06:32:12.355Z,55.03
2019-01-11T06:32:43.992Z,55.32
2019-01-11T06:33:15.594Z,55.23
2019-01-11T06:33:47.225Z,55.21
2019-01-11T06:34:18.822Z,55.35
2019-01-11T06:34:50.425Z,55.32
2019-01-11T06:35:22.027Z,55.36
2019-01-11T06:35:53.621Z,55.54
2019-01-11T06:36:25.213Z,55.35
2019-01-11T06:36:57.003Z,55.39
2019-01-11T06:37:28.598Z,55.52
2019-01-11T06:38:00.221Z,55.49
2019-01-11T06:38:31.812Z,55.52
2019-01-11T06:39:03.416Z,55.35
2019-01-11T06:39:35.011Z,55.42
2019-01-11T06:40:06.616Z,55.44
2019-01-11T06:40:38.209Z,55.50
2019-01-11T06:41:09.819Z,55.53
2019-01-11T06:41:41.428Z,55.49
2019-01-11T06:42:13.026Z,55.47
2019-01-11T06:42:44.621Z,55.56
2019-01-11T06:43:16.242Z,55.66
2019-01-11T06:43:47.848Z,55.66
2019-01-11T06:44:19.456Z,55.75
2019-01-11T06:44:51.050Z,55.64
2019-01-11T06:45:22.651Z,55.79
2019-01-11T06:45:54.259Z,55.82
2019-01-11T06:46:25.872Z,55.89
2019-01-11T06:46:57.479Z,55.83
2019-01-11T06:47:29.083Z,55.92
2019-01-11T06:48:00.706Z,55.98